sensor_id;sensor_type;location;lat;lon;timestamp;pressure;altitude;pressure_sealevel;temperature;humidity
54389;BME280;40975;50.390;8.640;2023-08-21T00:02:15;99639.13;;;21.47;100.00
54389;BME280;40975;50.390;8.640;2023-08-21T00:04:41;99633.91;;;21.39;100.00
54389;BME280;40975;50.390;8.640;2023-08-21T00:07:06;99634.13;;;21.37;100.00
54389;BME280;40975;50.390;8.640;2023-08-21T00:09:31;99629.13;;;21.34;100.00
54389;BME280;40975;50.390;8.640;2023-08-21T00:11:57;99625.81;;;21.32;100.00
54389;BME280;40975;50.390;8.640;2023-08-21T00:14:22;99630.59;;;21.30;100.00
54389;BME280;40975;50.390;8.640;2023-08-21T00:16:47;99623.72;;;21.27;100.00
54389;BME280;40975;50.390;8.640;2023-08-21T00:19:13;99623.13;;;21.25;100.00
54389;BME280;40975;50.390;8.640;2023-08-21T00:21:38;99622.47;;;21.23;100.00
54389;BME280;40975;50.390;8.640;2023-08-21T00:24:03;99622.06;;;21.20;100.00
54389;BME280;40975;50.390;8.640;2023-08-21T00:26:29;99628.06;;;21.15;100.00
54389;BME280;40975;50.390;8.640;2023-08-21T00:28:54;99626.00;;;21.10;100.00
54389;BME280;40975;50.390;8.640;2023-08-21T00:31:19;99622.63;;;21.02;100.00
54389;BME280;40975;50.390;8.640;2023-08-21T00:33:45;99622.63;;;21.02;100.00
54389;BME280;40975;50.390;8.640;2023-08-21T00:36:10;99618.06;;;20.95;100.00
54389;BME280;40975;50.390;8.640;2023-08-21T00:38:35;99617.22;;;20.95;100.00
54389;BME280;40975;50.390;8.640;2023-08-21T00:41:01;99619.28;;;20.93;100.00
54389;BME280;40975;50.390;8.640;2023-08-21T00:43:26;99615.34;;;20.89;100.00
54389;BME280;40975;50.390;8.640;2023-08-21T00:45:52;99615.13;;;20.90;100.00
54389;BME280;40975;50.390;8.640;2023-08-21T00:48:18;99612.81;;;20.87;100.00
54389;BME280;40975;50.390;8.640;2023-08-21T00:50:44;99614.47;;;20.88;100.00
54389;BME280;40975;50.390;8.640;2023-08-21T00:53:10;99612.22;;;20.85;100.00
54389;BME280;40975;50.390;8.640;2023-08-21T00:55:36;99612.38;;;20.84;100.00
54389;BME280;40975;50.390;8.640;2023-08-21T00:58:02;99606.19;;;20.83;100.00
54389;BME280;40975;50.390;8.640;2023-08-21T01:00:30;99602.41;;;20.77;100.00
54389;BME280;40975;50.390;8.640;2023-08-21T01:02:55;99619.25;;;20.79;100.00
54389;BME280;40975;50.390;8.640;2023-08-21T01:05:22;99614.25;;;20.76;100.00
54389;BME280;40975;50.390;8.640;2023-08-21T01:08:01;99608.38;;;20.73;100.00
54389;BME280;40975;50.390;8.640;2023-08-21T01:13:32;99619.78;;;20.68;100.00
54389;BME280;40975;50.390;8.640;2023-08-21T01:15:59;99618.72;;;20.62;100.00
54389;BME280;40975;50.390;8.640;2023-08-21T01:18:27;99622.81;;;20.58;100.00
54389;BME280;40975;50.390;8.640;2023-08-21T01:20:53;99620.97;;;20.59;100.00
54389;BME280;40975;50.390;8.640;2023-08-21T01:23:38;99622.81;;;20.58;100.00
54389;BME280;40975;50.390;8.640;2023-08-21T01:26:04;99622.00;;;20.58;100.00
54389;BME280;40975;50.390;8.640;2023-08-21T01:28:31;99624.72;;;20.58;100.00
54389;BME280;40975;50.390;8.640;2023-08-21T01:31:22;99627.00;;;20.61;100.00
54389;BME280;40975;50.390;8.640;2023-08-21T01:33:53;99637.59;;;20.62;100.00
54389;BME280;40975;50.390;8.640;2023-08-21T01:36:20;99629.09;;;20.65;100.00
54389;BME280;40975;50.390;8.640;2023-08-21T01:38:46;99638.22;;;20.64;100.00
54389;BME280;40975;50.390;8.640;2023-08-21T01:41:12;99636.34;;;20.65;100.00
54389;BME280;40975;50.390;8.640;2023-08-21T01:43:38;99641.09;;;20.63;100.00
54389;BME280;40975;50.390;8.640;2023-08-21T01:46:03;99639.66;;;20.60;100.00
54389;BME280;40975;50.390;8.640;2023-08-21T01:48:29;99630.31;;;20.56;100.00
54389;BME280;40975;50.390;8.640;2023-08-21T01:50:54;99641.69;;;20.58;100.00
54389;BME280;40975;50.390;8.640;2023-08-21T01:53:21;99637.34;;;20.57;100.00
54389;BME280;40975;50.390;8.640;2023-08-21T01:55:46;99640.50;;;20.61;100.00
54389;BME280;40975;50.390;8.640;2023-08-21T01:58:11;99642.97;;;20.62;100.00
54389;BME280;40975;50.390;8.640;2023-08-21T02:00:38;99630.09;;;20.58;100.00
54389;BME280;40975;50.390;8.640;2023-08-21T02:03:03;99635.50;;;20.58;100.00
54389;BME280;40975;50.390;8.640;2023-08-21T02:05:28;99633.81;;;20.57;100.00
54389;BME280;40975;50.390;8.640;2023-08-21T02:07:54;99645.63;;;20.56;100.00
54389;BME280;40975;50.390;8.640;2023-08-21T02:10:19;99644.34;;;20.51;100.00
54389;BME280;40975;50.390;8.640;2023-08-21T02:12:44;99645.16;;;20.45;100.00
54389;BME280;40975;50.390;8.640;2023-08-21T02:15:10;99645.56;;;20.42;100.00
54389;BME280;40975;50.390;8.640;2023-08-21T02:17:35;99639.72;;;20.39;100.00
54389;BME280;40975;50.390;8.640;2023-08-21T02:20:01;99632.66;;;20.38;100.00
54389;BME280;40975;50.390;8.640;2023-08-21T02:22:26;99640.97;;;20.36;100.00
54389;BME280;40975;50.390;8.640;2023-08-21T02:24:53;99642.84;;;20.35;100.00
54389;BME280;40975;50.390;8.640;2023-08-21T02:27:18;99644.25;;;20.31;100.00
54389;BME280;40975;50.390;8.640;2023-08-21T02:29:43;99637.56;;;20.27;100.00
54389;BME280;40975;50.390;8.640;2023-08-21T02:32:09;99633.25;;;20.26;100.00
54389;BME280;40975;50.390;8.640;2023-08-21T02:34:34;99637.56;;;20.21;100.00
54389;BME280;40975;50.390;8.640;2023-08-21T02:36:59;99632.28;;;20.12;100.00
54389;BME280;40975;50.390;8.640;2023-08-21T02:39:27;99630.03;;;20.09;100.00
54389;BME280;40975;50.390;8.640;2023-08-21T02:41:53;99639.13;;;20.08;100.00
54389;BME280;40975;50.390;8.640;2023-08-21T02:44:18;99632.88;;;20.01;100.00
54389;BME280;40975;50.390;8.640;2023-08-21T02:46:43;99639.88;;;19.95;100.00
54389;BME280;40975;50.390;8.640;2023-08-21T02:49:09;99635.06;;;19.91;100.00
54389;BME280;40975;50.390;8.640;2023-08-21T02:51:34;99629.59;;;19.84;100.00
54389;BME280;40975;50.390;8.640;2023-08-21T02:53:59;99638.44;;;19.78;100.00
54389;BME280;40975;50.390;8.640;2023-08-21T02:56:25;99644.41;;;19.73;100.00
54389;BME280;40975;50.390;8.640;2023-08-21T02:58:50;99636.84;;;19.62;100.00
54389;BME280;40975;50.390;8.640;2023-08-21T03:01:15;99637.25;;;19.58;100.00
54389;BME280;40975;50.390;8.640;2023-08-21T03:03:42;99635.13;;;19.54;100.00
54389;BME280;40975;50.390;8.640;2023-08-21T03:06:07;99634.28;;;19.53;100.00
54389;BME280;40975;50.390;8.640;2023-08-21T03:08:32;99632.00;;;19.50;100.00
54389;BME280;40975;50.390;8.640;2023-08-21T03:10:58;99637.31;;;19.44;100.00
54389;BME280;40975;50.390;8.640;2023-08-21T03:13:23;99637.69;;;19.40;100.00
54389;BME280;40975;50.390;8.640;2023-08-21T03:15:48;99633.53;;;19.38;100.00
54389;BME280;40975;50.390;8.640;2023-08-21T03:18:14;99634.28;;;19.32;100.00
54389;BME280;40975;50.390;8.640;2023-08-21T03:20:48;99634.47;;;19.30;100.00
54389;BME280;40975;50.390;8.640;2023-08-21T03:23:14;99637.09;;;19.23;100.00
54389;BME280;40975;50.390;8.640;2023-08-21T03:25:40;99634.31;;;19.17;100.00
54389;BME280;40975;50.390;8.640;2023-08-21T03:28:05;99633.50;;;19.16;100.00
54389;BME280;40975;50.390;8.640;2023-08-21T03:30:31;99636.75;;;19.11;100.00
54389;BME280;40975;50.390;8.640;2023-08-21T03:32:56;99635.94;;;19.11;100.00
54389;BME280;40975;50.390;8.640;2023-08-21T03:35:23;99644.56;;;19.06;100.00
54389;BME280;40975;50.390;8.640;2023-08-21T03:37:48;99644.28;;;19.01;100.00
54389;BME280;40975;50.390;8.640;2023-08-21T03:40:14;99641.72;;;18.93;100.00
54389;BME280;40975;50.390;8.640;2023-08-21T03:42:41;99646.63;;;18.89;100.00
54389;BME280;40975;50.390;8.640;2023-08-21T03:45:07;99637.03;;;18.87;100.00
54389;BME280;40975;50.390;8.640;2023-08-21T03:47:32;99647.19;;;18.85;100.00
54389;BME280;40975;50.390;8.640;2023-08-21T03:50:02;99646.72;;;18.81;100.00
54389;BME280;40975;50.390;8.640;2023-08-21T03:52:28;99638.81;;;18.79;100.00
54389;BME280;40975;50.390;8.640;2023-08-21T03:54:53;99643.38;;;18.79;100.00
54389;BME280;40975;50.390;8.640;2023-08-21T03:57:18;99643.56;;;18.77;100.00
54389;BME280;40975;50.390;8.640;2023-08-21T03:59:44;99647.75;;;18.80;100.00
54389;BME280;40975;50.390;8.640;2023-08-21T04:02:09;99648.56;;;18.80;100.00
54389;BME280;40975;50.390;8.640;2023-08-21T04:04:35;99645.97;;;18.72;100.00
54389;BME280;40975;50.390;8.640;2023-08-21T04:07:00;99644.50;;;18.70;100.00
54389;BME280;40975;50.390;8.640;2023-08-21T04:09:25;99650.72;;;18.70;100.00
54389;BME280;40975;50.390;8.640;2023-08-21T04:11:50;99653.75;;;18.67;100.00
54389;BME280;40975;50.390;8.640;2023-08-21T04:14:16;99650.91;;;18.69;100.00
54389;BME280;40975;50.390;8.640;2023-08-21T04:16:41;99651.25;;;18.65;100.00
54389;BME280;40975;50.390;8.640;2023-08-21T04:19:06;99648.56;;;18.65;100.00
54389;BME280;40975;50.390;8.640;2023-08-21T04:21:32;99646.44;;;18.61;100.00
54389;BME280;40975;50.390;8.640;2023-08-21T04:23:57;99631.81;;;18.48;100.00
54389;BME280;40975;50.390;8.640;2023-08-21T04:26:22;99651.06;;;18.67;100.00
54389;BME280;40975;50.390;8.640;2023-08-21T04:28:48;99656.00;;;18.63;100.00
54389;BME280;40975;50.390;8.640;2023-08-21T04:31:14;99652.03;;;18.59;100.00
54389;BME280;40975;50.390;8.640;2023-08-21T04:33:40;99651.38;;;18.57;100.00
54389;BME280;40975;50.390;8.640;2023-08-21T04:36:06;99651.00;;;18.60;100.00
54389;BME280;40975;50.390;8.640;2023-08-21T04:38:31;99653.69;;;18.60;100.00
54389;BME280;40975;50.390;8.640;2023-08-21T04:41:05;99651.81;;;18.61;100.00
54389;BME280;40975;50.390;8.640;2023-08-21T04:43:31;99651.63;;;18.62;100.00
54389;BME280;40975;50.390;8.640;2023-08-21T04:45:56;99652.03;;;18.59;100.00
54389;BME280;40975;50.390;8.640;2023-08-21T04:48:23;99654.88;;;18.58;100.00
54389;BME280;40975;50.390;8.640;2023-08-21T04:50:49;99655.53;;;18.60;100.00
54389;BME280;40975;50.390;8.640;2023-08-21T04:53:14;99657.50;;;18.66;100.00
54389;BME280;40975;50.390;8.640;2023-08-21T04:55:41;99656.84;;;18.64;100.00
54389;BME280;40975;50.390;8.640;2023-08-21T04:58:08;99653.94;;;18.65;100.00
54389;BME280;40975;50.390;8.640;2023-08-21T05:00:34;99653.94;;;18.65;100.00
54389;BME280;40975;50.390;8.640;2023-08-21T05:03:00;99656.72;;;18.72;100.00
54389;BME280;40975;50.390;8.640;2023-08-21T05:05:25;99667.59;;;18.79;100.00
54389;BME280;40975;50.390;8.640;2023-08-21T05:07:54;99669.50;;;18.85;100.00
54389;BME280;40975;50.390;8.640;2023-08-21T05:10:21;99666.47;;;18.88;100.00
54389;BME280;40975;50.390;8.640;2023-08-21T05:12:47;99672.28;;;18.92;100.00
54389;BME280;40975;50.390;8.640;2023-08-21T05:15:12;99677.78;;;18.99;100.00
54389;BME280;40975;50.390;8.640;2023-08-21T05:17:38;99680.06;;;19.02;100.00
54389;BME280;40975;50.390;8.640;2023-08-21T05:20:04;99681.91;;;19.16;100.00
54389;BME280;40975;50.390;8.640;2023-08-21T05:22:29;99675.19;;;19.27;100.00
54389;BME280;40975;50.390;8.640;2023-08-21T05:24:55;99680.09;;;19.38;100.00
54389;BME280;40975;50.390;8.640;2023-08-21T05:27:20;99673.63;;;19.54;100.00
54389;BME280;40975;50.390;8.640;2023-08-21T05:29:46;99687.22;;;19.68;100.00
54389;BME280;40975;50.390;8.640;2023-08-21T05:32:12;99685.13;;;19.85;100.00
54389;BME280;40975;50.390;8.640;2023-08-21T05:34:37;99687.75;;;20.00;100.00
54389;BME280;40975;50.390;8.640;2023-08-21T05:37:03;99686.19;;;20.12;100.00
54389;BME280;40975;50.390;8.640;2023-08-21T05:39:29;99685.28;;;20.27;100.00
54389;BME280;40975;50.390;8.640;2023-08-21T05:41:55;99690.56;;;20.42;100.00
54389;BME280;40975;50.390;8.640;2023-08-21T05:44:21;99693.09;;;20.50;100.00
54389;BME280;40975;50.390;8.640;2023-08-21T05:46:46;99699.81;;;20.61;100.00
54389;BME280;40975;50.390;8.640;2023-08-21T05:49:12;99696.09;;;20.69;100.00
54389;BME280;40975;50.390;8.640;2023-08-21T05:51:37;99695.34;;;20.75;100.00
54389;BME280;40975;50.390;8.640;2023-08-21T05:54:03;99697.63;;;20.78;100.00
54389;BME280;40975;50.390;8.640;2023-08-21T05:56:28;99707.81;;;20.83;100.00
54389;BME280;40975;50.390;8.640;2023-08-21T05:58:54;99696.84;;;20.84;100.00
54389;BME280;40975;50.390;8.640;2023-08-21T06:01:22;99698.94;;;20.89;100.00
54389;BME280;40975;50.390;8.640;2023-08-21T06:03:48;99697.13;;;20.96;100.00
54389;BME280;40975;50.390;8.640;2023-08-21T06:06:20;99701.75;;;21.16;100.00
54389;BME280;40975;50.390;8.640;2023-08-21T06:08:46;99701.84;;;21.42;100.00
54389;BME280;40975;50.390;8.640;2023-08-21T06:11:11;99712.13;;;21.87;100.00
54389;BME280;40975;50.390;8.640;2023-08-21T06:13:36;99710.28;;;22.48;100.00
54389;BME280;40975;50.390;8.640;2023-08-21T06:16:02;99716.72;;;23.33;100.00
54389;BME280;40975;50.390;8.640;2023-08-21T06:18:28;99711.50;;;24.02;94.09
54389;BME280;40975;50.390;8.640;2023-08-21T06:20:55;99707.06;;;24.77;86.23
54389;BME280;40975;50.390;8.640;2023-08-21T06:23:20;99717.72;;;25.47;86.47
54389;BME280;40975;50.390;8.640;2023-08-21T06:25:49;99710.13;;;26.10;74.95
54389;BME280;40975;50.390;8.640;2023-08-21T06:28:16;99714.16;;;26.19;74.00
54389;BME280;40975;50.390;8.640;2023-08-21T06:30:42;99718.00;;;25.99;75.15
54389;BME280;40975;50.390;8.640;2023-08-21T06:33:08;99717.44;;;26.09;75.45
54389;BME280;40975;50.390;8.640;2023-08-21T06:35:36;99716.63;;;26.56;74.42
54389;BME280;40975;50.390;8.640;2023-08-21T06:38:01;99722.53;;;26.77;72.28
54389;BME280;40975;50.390;8.640;2023-08-21T06:40:27;99712.13;;;27.26;68.89
54389;BME280;40975;50.390;8.640;2023-08-21T06:42:52;99717.84;;;27.25;68.63
54389;BME280;40975;50.390;8.640;2023-08-21T06:45:21;99712.59;;;27.23;68.03
54389;BME280;40975;50.390;8.640;2023-08-21T06:47:47;99713.16;;;26.96;69.40
54389;BME280;40975;50.390;8.640;2023-08-21T06:50:12;99714.63;;;26.28;71.84
54389;BME280;40975;50.390;8.640;2023-08-21T06:52:37;99711.47;;;25.88;74.93
54389;BME280;40975;50.390;8.640;2023-08-21T06:55:03;99706.88;;;25.47;76.07
54389;BME280;40975;50.390;8.640;2023-08-21T06:57:28;99717.63;;;25.53;77.32
54389;BME280;40975;50.390;8.640;2023-08-21T06:59:53;99713.38;;;25.27;78.49
54389;BME280;40975;50.390;8.640;2023-08-21T07:02:19;99713.81;;;25.73;78.04
54389;BME280;40975;50.390;8.640;2023-08-21T07:04:44;99713.88;;;26.08;74.58
54389;BME280;40975;50.390;8.640;2023-08-21T07:07:10;99717.56;;;26.38;72.95
54389;BME280;40975;50.390;8.640;2023-08-21T07:09:35;99717.03;;;27.00;70.58
54389;BME280;40975;50.390;8.640;2023-08-21T07:12:00;99718.59;;;27.66;67.66
54389;BME280;40975;50.390;8.640;2023-08-21T07:14:27;99716.03;;;28.22;67.28
54389;BME280;40975;50.390;8.640;2023-08-21T07:16:52;99710.16;;;27.97;64.83
54389;BME280;40975;50.390;8.640;2023-08-21T07:19:17;99720.56;;;27.25;68.78
54389;BME280;40975;50.390;8.640;2023-08-21T07:21:42;99725.16;;;26.83;72.63
54389;BME280;40975;50.390;8.640;2023-08-21T07:24:08;99717.22;;;26.58;73.00
54389;BME280;40975;50.390;8.640;2023-08-21T07:26:33;99707.84;;;26.90;71.35
54389;BME280;40975;50.390;8.640;2023-08-21T07:28:58;99718.53;;;26.79;71.96
54389;BME280;40975;50.390;8.640;2023-08-21T07:31:24;99710.59;;;26.42;75.93
54389;BME280;40975;50.390;8.640;2023-08-21T07:33:49;99700.38;;;26.02;75.60
54389;BME280;40975;50.390;8.640;2023-08-21T07:36:15;99706.19;;;25.63;79.37
54389;BME280;40975;50.390;8.640;2023-08-21T07:38:43;99698.84;;;25.52;80.08
54389;BME280;40975;50.390;8.640;2023-08-21T07:41:10;99700.00;;;25.44;81.72
54389;BME280;40975;50.390;8.640;2023-08-21T07:43:38;99706.22;;;25.14;82.76
54389;BME280;40975;50.390;8.640;2023-08-21T07:46:04;99694.06;;;25.17;86.51
54389;BME280;40975;50.390;8.640;2023-08-21T07:48:30;99695.97;;;24.97;85.62
54389;BME280;40975;50.390;8.640;2023-08-21T07:50:55;99696.25;;;25.08;85.14
54389;BME280;40975;50.390;8.640;2023-08-21T07:53:21;99698.56;;;25.23;84.95
54389;BME280;40975;50.390;8.640;2023-08-21T07:55:47;99709.56;;;25.47;82.43
54389;BME280;40975;50.390;8.640;2023-08-21T07:58:12;99710.50;;;25.83;81.41
54389;BME280;40975;50.390;8.640;2023-08-21T08:00:38;99712.25;;;26.31;79.58
54389;BME280;40975;50.390;8.640;2023-08-21T08:03:04;99711.97;;;26.92;77.29
54389;BME280;40975;50.390;8.640;2023-08-21T08:05:29;99705.22;;;27.36;72.72
54389;BME280;40975;50.390;8.640;2023-08-21T08:07:54;99712.03;;;27.79;70.87
54389;BME280;40975;50.390;8.640;2023-08-21T08:10:20;99706.81;;;28.46;68.59
54389;BME280;40975;50.390;8.640;2023-08-21T08:12:45;99703.47;;;29.22;65.31
54389;BME280;40975;50.390;8.640;2023-08-21T08:15:10;99704.25;;;29.45;64.63
54389;BME280;40975;50.390;8.640;2023-08-21T08:17:36;99710.88;;;30.04;62.29
54389;BME280;40975;50.390;8.640;2023-08-21T08:20:01;99709.50;;;30.06;62.30
54389;BME280;40975;50.390;8.640;2023-08-21T08:22:27;99701.53;;;30.43;60.39
54389;BME280;40975;50.390;8.640;2023-08-21T08:24:52;99706.72;;;30.39;59.20
54389;BME280;40975;50.390;8.640;2023-08-21T08:27:17;99711.03;;;30.67;58.53
54389;BME280;40975;50.390;8.640;2023-08-21T08:29:42;99709.72;;;30.80;59.43
54389;BME280;40975;50.390;8.640;2023-08-21T08:32:08;99713.00;;;31.61;57.33
54389;BME280;40975;50.390;8.640;2023-08-21T08:34:33;99710.22;;;32.60;54.65
54389;BME280;40975;50.390;8.640;2023-08-21T08:36:58;99712.66;;;33.47;51.53
54389;BME280;40975;50.390;8.640;2023-08-21T08:39:24;99716.66;;;33.15;53.06
54389;BME280;40975;50.390;8.640;2023-08-21T08:41:56;99700.41;;;32.17;53.96
54389;BME280;40975;50.390;8.640;2023-08-21T08:44:24;99701.97;;;31.30;56.79
54389;BME280;40975;50.390;8.640;2023-08-21T08:46:51;99703.03;;;32.79;52.75
54389;BME280;40975;50.390;8.640;2023-08-21T08:49:16;99706.78;;;33.59;50.12
54389;BME280;40975;50.390;8.640;2023-08-21T08:51:42;99705.34;;;32.46;53.25
54389;BME280;40975;50.390;8.640;2023-08-21T08:54:08;99699.03;;;34.31;48.43
54389;BME280;40975;50.390;8.640;2023-08-21T08:56:34;99714.00;;;35.41;48.31
54389;BME280;40975;50.390;8.640;2023-08-21T08:58:59;99703.78;;;35.99;47.82
54389;BME280;40975;50.390;8.640;2023-08-21T09:01:25;99692.38;;;36.33;44.33
54389;BME280;40975;50.390;8.640;2023-08-21T09:03:50;99699.41;;;37.23;44.80
54389;BME280;40975;50.390;8.640;2023-08-21T09:06:16;99709.84;;;37.63;43.61
54389;BME280;40975;50.390;8.640;2023-08-21T09:08:54;99716.06;;;38.14;41.27
54389;BME280;40975;50.390;8.640;2023-08-21T09:11:20;99716.22;;;38.40;41.89
54389;BME280;40975;50.390;8.640;2023-08-21T09:13:49;99716.66;;;39.23;39.08
54389;BME280;40975;50.390;8.640;2023-08-21T09:16:14;99716.03;;;39.35;39.57
54389;BME280;40975;50.390;8.640;2023-08-21T09:18:48;99717.84;;;39.48;38.55
54389;BME280;40975;50.390;8.640;2023-08-21T09:21:21;99710.25;;;39.05;41.04
54389;BME280;40975;50.390;8.640;2023-08-21T09:23:48;99716.28;;;38.98;40.30
54389;BME280;40975;50.390;8.640;2023-08-21T09:26:18;99713.44;;;39.56;38.27
54389;BME280;40975;50.390;8.640;2023-08-21T09:28:45;99712.59;;;39.29;39.12
54389;BME280;40975;50.390;8.640;2023-08-21T09:31:11;99713.59;;;39.42;37.92
54389;BME280;40975;50.390;8.640;2023-08-21T09:33:36;99710.75;;;39.25;38.99
54389;BME280;40975;50.390;8.640;2023-08-21T09:36:03;99702.81;;;39.49;39.95
54389;BME280;40975;50.390;8.640;2023-08-21T09:38:30;99704.63;;;39.37;38.33
54389;BME280;40975;50.390;8.640;2023-08-21T09:40:55;99707.50;;;40.49;35.90
54389;BME280;40975;50.390;8.640;2023-08-21T09:43:22;99707.19;;;39.94;38.51
54389;BME280;40975;50.390;8.640;2023-08-21T09:45:50;99705.00;;;40.26;37.21
54389;BME280;40975;50.390;8.640;2023-08-21T09:48:21;99699.41;;;41.25;35.28
54389;BME280;40975;50.390;8.640;2023-08-21T09:50:50;99699.94;;;40.20;37.48
54389;BME280;40975;50.390;8.640;2023-08-21T09:53:16;99690.72;;;39.63;38.16
54389;BME280;40975;50.390;8.640;2023-08-21T09:55:41;99692.00;;;39.74;38.44
54389;BME280;40975;50.390;8.640;2023-08-21T09:58:08;99692.69;;;39.71;38.01
54389;BME280;40975;50.390;8.640;2023-08-21T10:00:35;99685.41;;;40.23;37.80
54389;BME280;40975;50.390;8.640;2023-08-21T10:03:07;99684.31;;;39.98;38.48
54389;BME280;40975;50.390;8.640;2023-08-21T10:05:37;99680.81;;;40.18;36.67
54389;BME280;40975;50.390;8.640;2023-08-21T10:08:06;99687.59;;;40.47;39.43
54389;BME280;40975;50.390;8.640;2023-08-21T10:10:33;99689.22;;;40.78;37.98
54389;BME280;40975;50.390;8.640;2023-08-21T10:12:59;99684.47;;;40.49;36.87
54389;BME280;40975;50.390;8.640;2023-08-21T10:15:27;99680.03;;;40.86;39.32
54389;BME280;40975;50.390;8.640;2023-08-21T10:17:53;99664.16;;;38.29;38.14
54389;BME280;40975;50.390;8.640;2023-08-21T10:20:24;99660.84;;;35.87;43.36
54389;BME280;40975;50.390;8.640;2023-08-21T10:22:51;99663.44;;;34.39;51.66
54389;BME280;40975;50.390;8.640;2023-08-21T10:25:20;99661.44;;;35.13;48.40
54389;BME280;40975;50.390;8.640;2023-08-21T10:27:50;99650.97;;;33.54;51.24
54389;BME280;40975;50.390;8.640;2023-08-21T10:30:20;99653.03;;;33.32;50.87
54389;BME280;40975;50.390;8.640;2023-08-21T10:32:47;99642.22;;;32.15;55.57
54389;BME280;40975;50.390;8.640;2023-08-21T10:35:18;99652.94;;;31.75;54.33
54389;BME280;40975;50.390;8.640;2023-08-21T10:40:36;99644.09;;;31.11;61.96
54389;BME280;40975;50.390;8.640;2023-08-21T10:43:01;99632.91;;;31.44;56.38
54389;BME280;40975;50.390;8.640;2023-08-21T10:45:30;99634.41;;;30.93;57.67
54389;BME280;40975;50.390;8.640;2023-08-21T10:47:59;99632.97;;;30.70;58.39
54389;BME280;40975;50.390;8.640;2023-08-21T10:50:25;99627.47;;;33.37;51.79
54389;BME280;40975;50.390;8.640;2023-08-21T10:52:52;99643.00;;;34.46;49.69
54389;BME280;40975;50.390;8.640;2023-08-21T10:55:18;99649.88;;;35.30;47.39
54389;BME280;40975;50.390;8.640;2023-08-21T10:57:46;99642.28;;;35.60;45.35
54389;BME280;40975;50.390;8.640;2023-08-21T11:00:14;99648.38;;;35.57;46.77
54389;BME280;40975;50.390;8.640;2023-08-21T11:02:47;99642.06;;;35.56;47.37
54389;BME280;40975;50.390;8.640;2023-08-21T11:05:14;99645.47;;;35.10;47.92
54389;BME280;40975;50.390;8.640;2023-08-21T11:07:45;99631.94;;;33.62;49.08
54389;BME280;40975;50.390;8.640;2023-08-21T11:10:15;99632.44;;;33.64;51.43
54389;BME280;40975;50.390;8.640;2023-08-21T11:12:52;99640.47;;;34.49;48.15
54389;BME280;40975;50.390;8.640;2023-08-21T11:15:18;99633.63;;;34.47;45.76
54389;BME280;40975;50.390;8.640;2023-08-21T11:18:04;99633.63;;;34.66;45.65
54389;BME280;40975;50.390;8.640;2023-08-21T11:20:30;99636.88;;;34.73;44.66
54389;BME280;40975;50.390;8.640;2023-08-21T11:22:57;99637.25;;;34.42;46.02
54389;BME280;40975;50.390;8.640;2023-08-21T11:25:22;99629.34;;;34.06;45.48
54389;BME280;40975;50.390;8.640;2023-08-21T11:27:48;99623.94;;;33.61;46.45
54389;BME280;40975;50.390;8.640;2023-08-21T11:30:13;99632.81;;;33.13;51.33
54389;BME280;40975;50.390;8.640;2023-08-21T11:32:38;99630.69;;;33.44;52.74
54389;BME280;40975;50.390;8.640;2023-08-21T11:35:04;99630.13;;;33.77;48.04
54389;BME280;40975;50.390;8.640;2023-08-21T11:37:29;99625.75;;;33.76;48.54
54389;BME280;40975;50.390;8.640;2023-08-21T11:39:56;99628.88;;;34.23;46.87
54389;BME280;40975;50.390;8.640;2023-08-21T11:42:29;99642.59;;;35.01;43.26
54389;BME280;40975;50.390;8.640;2023-08-21T11:44:54;99621.81;;;34.17;41.95
54389;BME280;40975;50.390;8.640;2023-08-21T11:47:21;99627.41;;;33.42;45.98
54389;BME280;40975;50.390;8.640;2023-08-21T11:49:47;99619.44;;;32.96;45.60
54389;BME280;40975;50.390;8.640;2023-08-21T11:52:18;99625.34;;;32.58;46.14
54389;BME280;40975;50.390;8.640;2023-08-21T11:54:47;99621.84;;;32.42;48.92
54389;BME280;40975;50.390;8.640;2023-08-21T11:57:14;99621.34;;;32.30;50.68
54389;BME280;40975;50.390;8.640;2023-08-21T11:59:40;99617.00;;;31.61;58.11
54389;BME280;40975;50.390;8.640;2023-08-21T12:02:10;99613.16;;;31.37;54.94
54389;BME280;40975;50.390;8.640;2023-08-21T12:04:35;99619.19;;;31.54;52.27
54389;BME280;40975;50.390;8.640;2023-08-21T12:07:00;99614.25;;;32.08;48.93
54389;BME280;40975;50.390;8.640;2023-08-21T12:09:26;99616.03;;;32.59;48.75
54389;BME280;40975;50.390;8.640;2023-08-21T12:11:52;99617.41;;;32.51;51.81
54389;BME280;40975;50.390;8.640;2023-08-21T12:14:17;99615.28;;;32.38;54.88
54389;BME280;40975;50.390;8.640;2023-08-21T12:16:43;99608.78;;;31.92;52.17
54389;BME280;40975;50.390;8.640;2023-08-21T12:19:08;99608.50;;;31.63;50.93
54389;BME280;40975;50.390;8.640;2023-08-21T12:21:35;99604.84;;;32.35;48.60
54389;BME280;40975;50.390;8.640;2023-08-21T12:24:04;99608.78;;;31.98;50.24
54389;BME280;40975;50.390;8.640;2023-08-21T12:26:29;99598.34;;;31.84;50.38
54389;BME280;40975;50.390;8.640;2023-08-21T12:28:54;99605.06;;;32.49;52.77
54389;BME280;40975;50.390;8.640;2023-08-21T12:31:20;99600.81;;;32.88;49.67
54389;BME280;40975;50.390;8.640;2023-08-21T12:33:45;99598.25;;;32.96;45.81
54389;BME280;40975;50.390;8.640;2023-08-21T12:36:10;99589.81;;;33.27;45.21
54389;BME280;40975;50.390;8.640;2023-08-21T12:38:36;99591.28;;;33.14;44.37
54389;BME280;40975;50.390;8.640;2023-08-21T12:41:02;99588.59;;;33.04;42.89
54389;BME280;40975;50.390;8.640;2023-08-21T12:43:27;99588.38;;;32.95;43.35
54389;BME280;40975;50.390;8.640;2023-08-21T12:45:52;99584.84;;;32.19;45.49
54389;BME280;40975;50.390;8.640;2023-08-21T12:48:18;99584.09;;;31.87;47.76
54389;BME280;40975;50.390;8.640;2023-08-21T12:50:43;99590.34;;;32.14;47.94
54389;BME280;40975;50.390;8.640;2023-08-21T12:53:08;99583.25;;;31.92;49.02
54389;BME280;40975;50.390;8.640;2023-08-21T12:55:34;99587.19;;;32.56;48.85
54389;BME280;40975;50.390;8.640;2023-08-21T12:57:59;99577.56;;;32.59;46.37